sensor_id;sensor_type;location;lat;lon;timestamp;temperature;humidity
5023;DHT22;2530;47.990;7.866;2023-04-06T00:01:06;2.00;1.00
5023;DHT22;2530;47.990;7.866;2023-04-06T00:03:32;2.00;1.00
5023;DHT22;2530;47.990;7.866;2023-04-06T00:05:58;1.90;1.00
5023;DHT22;2530;47.990;7.866;2023-04-06T00:08:23;1.90;1.00
5023;DHT22;2530;47.990;7.866;2023-04-06T00:10:49;3.00;1.00
5023;DHT22;2530;47.990;7.866;2023-04-06T00:13:14;1.90;99.90
5023;DHT22;2530;47.990;7.866;2023-04-06T00:15:40;1.90;1.00
5023;DHT22;2530;47.990;7.866;2023-04-06T00:18:06;1.80;1.00
5023;DHT22;2530;47.990;7.866;2023-04-06T00:20:41;1.80;1.00
5023;DHT22;2530;47.990;7.866;2023-04-06T00:23:09;1.90;1.00
5023;DHT22;2530;47.990;7.866;2023-04-06T00:25:41;1.80;1.00
5023;DHT22;2530;47.990;7.866;2023-04-06T00:28:12;1.80;99.90
5023;DHT22;2530;47.990;7.866;2023-04-06T00:30:38;1.80;99.90
5023;DHT22;2530;47.990;7.866;2023-04-06T00:33:03;2.00;1.00
5023;DHT22;2530;47.990;7.866;2023-04-06T00:35:29;1.80;1.00
5023;DHT22;2530;47.990;7.866;2023-04-06T00:37:54;1.70;1.00
5023;DHT22;2530;47.990;7.866;2023-04-06T00:40:20;1.70;1.00
5023;DHT22;2530;47.990;7.866;2023-04-06T00:42:45;1.80;99.90
5023;DHT22;2530;47.990;7.866;2023-04-06T00:45:11;2.90;99.90
5023;DHT22;2530;47.990;7.866;2023-04-06T00:47:37;1.80;99.90
5023;DHT22;2530;47.990;7.866;2023-04-06T00:50:02;1.70;99.90
5023;DHT22;2530;47.990;7.866;2023-04-06T00:52:28;1.70;1.00
5023;DHT22;2530;47.990;7.866;2023-04-06T00:54:54;3.20;99.90
5023;DHT22;2530;47.990;7.866;2023-04-06T00:57:20;1.10;99.90
5023;DHT22;2530;47.990;7.866;2023-04-06T00:59:46;1.70;99.90
5023;DHT22;2530;47.990;7.866;2023-04-06T01:02:12;1.70;99.90
5023;DHT22;2530;47.990;7.866;2023-04-06T01:04:38;1.80;1.00
5023;DHT22;2530;47.990;7.866;2023-04-06T01:07:03;1.70;99.90
5023;DHT22;2530;47.990;7.866;2023-04-06T01:09:30;1.50;1.00
5023;DHT22;2530;47.990;7.866;2023-04-06T01:11:59;1.50;1.00
5023;DHT22;2530;47.990;7.866;2023-04-06T01:14:25;1.60;1.00
5023;DHT22;2530;47.990;7.866;2023-04-06T01:16:51;1.50;1.00
5023;DHT22;2530;47.990;7.866;2023-04-06T01:19:17;1.60;1.00
5023;DHT22;2530;47.990;7.866;2023-04-06T01:21:42;1.50;1.00
5023;DHT22;2530;47.990;7.866;2023-04-06T01:24:08;1.40;1.00
5023;DHT22;2530;47.990;7.866;2023-04-06T01:26:35;1.50;1.00
5023;DHT22;2530;47.990;7.866;2023-04-06T01:29:02;1.40;1.00
5023;DHT22;2530;47.990;7.866;2023-04-06T01:31:28;1.40;1.00
5023;DHT22;2530;47.990;7.866;2023-04-06T01:33:54;1.50;1.00
5023;DHT22;2530;47.990;7.866;2023-04-06T01:36:20;1.40;1.00
5023;DHT22;2530;47.990;7.866;2023-04-06T01:38:45;1.40;1.00
5023;DHT22;2530;47.990;7.866;2023-04-06T01:41:11;1.40;1.00
5023;DHT22;2530;47.990;7.866;2023-04-06T01:43:36;1.50;1.00
5023;DHT22;2530;47.990;7.866;2023-04-06T01:46:02;1.30;1.00
5023;DHT22;2530;47.990;7.866;2023-04-06T01:48:28;1.30;1.00
5023;DHT22;2530;47.990;7.866;2023-04-06T01:50:54;1.30;1.00
5023;DHT22;2530;47.990;7.866;2023-04-06T01:53:20;1.30;1.00
5023;DHT22;2530;47.990;7.866;2023-04-06T01:55:46;1.20;1.00
5023;DHT22;2530;47.990;7.866;2023-04-06T01:58:12;1.20;1.00
5023;DHT22;2530;47.990;7.866;2023-04-06T02:00:37;1.30;1.00
5023;DHT22;2530;47.990;7.866;2023-04-06T02:03:03;1.20;1.00
5023;DHT22;2530;47.990;7.866;2023-04-06T02:05:31;1.20;1.00
5023;DHT22;2530;47.990;7.866;2023-04-06T02:07:57;1.20;1.00
5023;DHT22;2530;47.990;7.866;2023-04-06T02:10:22;1.30;1.00
5023;DHT22;2530;47.990;7.866;2023-04-06T02:12:49;1.30;1.00
5023;DHT22;2530;47.990;7.866;2023-04-06T02:15:15;1.20;1.00
5023;DHT22;2530;47.990;7.866;2023-04-06T02:17:41;1.10;1.00
5023;DHT22;2530;47.990;7.866;2023-04-06T02:20:07;1.10;1.00
5023;DHT22;2530;47.990;7.866;2023-04-06T02:22:33;1.00;1.00
5023;DHT22;2530;47.990;7.866;2023-04-06T02:24:59;1.00;1.00
5023;DHT22;2530;47.990;7.866;2023-04-06T02:27:24;1.00;1.00
5023;DHT22;2530;47.990;7.866;2023-04-06T02:29:50;1.10;1.00
5023;DHT22;2530;47.990;7.866;2023-04-06T02:32:15;1.00;1.00
5023;DHT22;2530;47.990;7.866;2023-04-06T02:34:41;1.00;1.00
5023;DHT22;2530;47.990;7.866;2023-04-06T02:37:06;1.10;1.00
5023;DHT22;2530;47.990;7.866;2023-04-06T02:39:32;1.20;1.00
5023;DHT22;2530;47.990;7.866;2023-04-06T02:41:57;1.10;1.00
5023;DHT22;2530;47.990;7.866;2023-04-06T02:44:23;1.10;1.00
5023;DHT22;2530;47.990;7.866;2023-04-06T02:46:48;1.00;1.00
5023;DHT22;2530;47.990;7.866;2023-04-06T02:49:14;1.00;1.00
5023;DHT22;2530;47.990;7.866;2023-04-06T02:51:39;0.90;1.00
5023;DHT22;2530;47.990;7.866;2023-04-06T02:54:05;1.00;1.00
5023;DHT22;2530;47.990;7.866;2023-04-06T02:56:30;1.00;1.00
5023;DHT22;2530;47.990;7.866;2023-04-06T02:58:56;0.90;1.00
5023;DHT22;2530;47.990;7.866;2023-04-06T03:01:21;0.90;1.00
5023;DHT22;2530;47.990;7.866;2023-04-06T03:03:47;0.90;1.00
5023;DHT22;2530;47.990;7.866;2023-04-06T03:06:13;0.90;1.00
5023;DHT22;2530;47.990;7.866;2023-04-06T03:08:38;0.90;1.00
5023;DHT22;2530;47.990;7.866;2023-04-06T03:11:04;0.80;1.00
5023;DHT22;2530;47.990;7.866;2023-04-06T03:13:29;0.80;1.00
5023;DHT22;2530;47.990;7.866;2023-04-06T03:15:55;0.80;1.00
5023;DHT22;2530;47.990;7.866;2023-04-06T03:18:22;0.80;1.00
5023;DHT22;2530;47.990;7.866;2023-04-06T03:20:48;0.70;1.00
5023;DHT22;2530;47.990;7.866;2023-04-06T03:23:14;0.80;1.00
5023;DHT22;2530;47.990;7.866;2023-04-06T03:25:39;0.80;1.00
5023;DHT22;2530;47.990;7.866;2023-04-06T03:28:05;0.90;1.00
5023;DHT22;2530;47.990;7.866;2023-04-06T03:30:30;0.80;1.00
5023;DHT22;2530;47.990;7.866;2023-04-06T03:32:56;0.90;1.00
5023;DHT22;2530;47.990;7.866;2023-04-06T03:35:21;0.80;1.00
5023;DHT22;2530;47.990;7.866;2023-04-06T03:37:47;0.90;1.00
5023;DHT22;2530;47.990;7.866;2023-04-06T03:40:12;0.90;1.00
5023;DHT22;2530;47.990;7.866;2023-04-06T03:42:38;0.80;1.00
5023;DHT22;2530;47.990;7.866;2023-04-06T03:45:03;0.90;1.00
5023;DHT22;2530;47.990;7.866;2023-04-06T03:47:29;0.80;1.00
5023;DHT22;2530;47.990;7.866;2023-04-06T03:49:55;0.70;1.00
5023;DHT22;2530;47.990;7.866;2023-04-06T03:52:21;0.80;1.00
5023;DHT22;2530;47.990;7.866;2023-04-06T03:54:48;0.70;1.00
5023;DHT22;2530;47.990;7.866;2023-04-06T03:57:14;0.70;1.00
5023;DHT22;2530;47.990;7.866;2023-04-06T03:59:39;0.80;1.00
5023;DHT22;2530;47.990;7.866;2023-04-06T04:02:05;0.80;1.00
5023;DHT22;2530;47.990;7.866;2023-04-06T04:04:30;0.70;1.00
5023;DHT22;2530;47.990;7.866;2023-04-06T04:06:56;0.60;1.00
5023;DHT22;2530;47.990;7.866;2023-04-06T04:09:21;0.70;1.00
5023;DHT22;2530;47.990;7.866;2023-04-06T04:11:47;0.60;1.00
5023;DHT22;2530;47.990;7.866;2023-04-06T04:14:12;0.60;1.00
5023;DHT22;2530;47.990;7.866;2023-04-06T04:16:38;0.70;1.00
5023;DHT22;2530;47.990;7.866;2023-04-06T04:19:04;0.60;1.00
5023;DHT22;2530;47.990;7.866;2023-04-06T04:21:31;0.60;1.00
5023;DHT22;2530;47.990;7.866;2023-04-06T04:23:57;0.70;1.00
5023;DHT22;2530;47.990;7.866;2023-04-06T04:26:22;0.50;1.00
5023;DHT22;2530;47.990;7.866;2023-04-06T04:28:48;0.60;1.00
5023;DHT22;2530;47.990;7.866;2023-04-06T04:31:13;0.70;1.00
5023;DHT22;2530;47.990;7.866;2023-04-06T04:33:39;0.70;1.00
5023;DHT22;2530;47.990;7.866;2023-04-06T04:36:05;0.80;1.00
5023;DHT22;2530;47.990;7.866;2023-04-06T04:38:31;0.80;1.00
5023;DHT22;2530;47.990;7.866;2023-04-06T04:40:56;0.70;1.00
5023;DHT22;2530;47.990;7.866;2023-04-06T04:43:22;0.80;1.00
5023;DHT22;2530;47.990;7.866;2023-04-06T04:45:47;0.80;1.00
5023;DHT22;2530;47.990;7.866;2023-04-06T04:48:13;0.60;1.00
5023;DHT22;2530;47.990;7.866;2023-04-06T04:50:38;0.60;1.00
5023;DHT22;2530;47.990;7.866;2023-04-06T04:53:04;0.60;1.00
5023;DHT22;2530;47.990;7.866;2023-04-06T04:55:31;0.60;1.00
5023;DHT22;2530;47.990;7.866;2023-04-06T04:57:57;0.60;1.00
5023;DHT22;2530;47.990;7.866;2023-04-06T05:00:22;0.60;1.00
5023;DHT22;2530;47.990;7.866;2023-04-06T05:02:48;0.60;1.00
5023;DHT22;2530;47.990;7.866;2023-04-06T05:05:14;0.60;1.00
5023;DHT22;2530;47.990;7.866;2023-04-06T05:07:39;0.70;1.00
5023;DHT22;2530;47.990;7.866;2023-04-06T05:10:05;0.60;1.00
5023;DHT22;2530;47.990;7.866;2023-04-06T05:12:31;0.60;1.00
5023;DHT22;2530;47.990;7.866;2023-04-06T05:14:56;0.80;1.00
5023;DHT22;2530;47.990;7.866;2023-04-06T05:17:22;0.80;1.00
5023;DHT22;2530;47.990;7.866;2023-04-06T05:19:48;0.90;99.90
5023;DHT22;2530;47.990;7.866;2023-04-06T05:22:13;0.90;1.00
5023;DHT22;2530;47.990;7.866;2023-04-06T05:24:43;0.90;99.90
5023;DHT22;2530;47.990;7.866;2023-04-06T05:27:09;1.00;1.00
5023;DHT22;2530;47.990;7.866;2023-04-06T05:29:35;1.00;99.90
5023;DHT22;2530;47.990;7.866;2023-04-06T05:32:01;0.90;99.90
5023;DHT22;2530;47.990;7.866;2023-04-06T05:34:26;1.10;99.90
5023;DHT22;2530;47.990;7.866;2023-04-06T05:36:52;1.10;99.90
5023;DHT22;2530;47.990;7.866;2023-04-06T05:39:17;1.00;99.90
5023;DHT22;2530;47.990;7.866;2023-04-06T05:41:43;0.90;99.90
5023;DHT22;2530;47.990;7.866;2023-04-06T05:44:08;1.00;99.90
5023;DHT22;2530;47.990;7.866;2023-04-06T05:46:34;1.20;99.90
5023;DHT22;2530;47.990;7.866;2023-04-06T05:48:59;1.20;1.00
5023;DHT22;2530;47.990;7.866;2023-04-06T05:51:25;1.10;1.00
5023;DHT22;2530;47.990;7.866;2023-04-06T05:53:52;1.40;1.00
5023;DHT22;2530;47.990;7.866;2023-04-06T05:56:17;1.30;1.00
5023;DHT22;2530;47.990;7.866;2023-04-06T05:58:43;1.30;1.00
5023;DHT22;2530;47.990;7.866;2023-04-06T06:01:08;1.30;1.00
5023;DHT22;2530;47.990;7.866;2023-04-06T06:03:35;1.30;1.00
5023;DHT22;2530;47.990;7.866;2023-04-06T06:06:01;1.30;1.00
5023;DHT22;2530;47.990;7.866;2023-04-06T06:08:27;1.40;99.90
5023;DHT22;2530;47.990;7.866;2023-04-06T06:10:53;1.50;1.00
5023;DHT22;2530;47.990;7.866;2023-04-06T06:13:18;1.60;1.00
5023;DHT22;2530;47.990;7.866;2023-04-06T06:15:44;1.60;1.00
5023;DHT22;2530;47.990;7.866;2023-04-06T06:18:09;1.70;99.90
5023;DHT22;2530;47.990;7.866;2023-04-06T06:20:35;1.70;1.00
5023;DHT22;2530;47.990;7.866;2023-04-06T06:23:01;1.80;99.90
5023;DHT22;2530;47.990;7.866;2023-04-06T06:25:26;1.80;99.90
5023;DHT22;2530;47.990;7.866;2023-04-06T06:27:52;2.00;2.90
5023;DHT22;2530;47.990;7.866;2023-04-06T06:30:17;2.00;46.60
5023;DHT22;2530;47.990;7.866;2023-04-06T06:32:43;2.10;99.90
5023;DHT22;2530;47.990;7.866;2023-04-06T06:35:08;2.30;1.00
5023;DHT22;2530;47.990;7.866;2023-04-06T06:37:34;2.30;99.90
5023;DHT22;2530;47.990;7.866;2023-04-06T06:39:59;2.40;99.90
5023;DHT22;2530;47.990;7.866;2023-04-06T06:42:25;2.50;80.80
5023;DHT22;2530;47.990;7.866;2023-04-06T06:44:51;2.70;77.20
5023;DHT22;2530;47.990;7.866;2023-04-06T06:47:17;2.60;79.40
5023;DHT22;2530;47.990;7.866;2023-04-06T06:49:43;2.80;72.60
5023;DHT22;2530;47.990;7.866;2023-04-06T06:52:08;3.00;74.50
5023;DHT22;2530;47.990;7.866;2023-04-06T06:54:34;3.20;62.60
5023;DHT22;2530;47.990;7.866;2023-04-06T06:56:59;3.20;66.60
5023;DHT22;2530;47.990;7.866;2023-04-06T06:59:25;3.10;63.70
5023;DHT22;2530;47.990;7.866;2023-04-06T07:01:51;3.30;61.00
5023;DHT22;2530;47.990;7.866;2023-04-06T07:04:16;3.40;67.60
5023;DHT22;2530;47.990;7.866;2023-04-06T07:06:42;3.50;57.60
5023;DHT22;2530;47.990;7.866;2023-04-06T07:09:08;3.60;56.90
5023;DHT22;2530;47.990;7.866;2023-04-06T07:11:33;3.80;55.50
5023;DHT22;2530;47.990;7.866;2023-04-06T07:13:59;3.90;56.70
5023;DHT22;2530;47.990;7.866;2023-04-06T07:16:24;4.10;54.30
5023;DHT22;2530;47.990;7.866;2023-04-06T07:18:50;4.20;54.10
5023;DHT22;2530;47.990;7.866;2023-04-06T07:21:16;4.50;50.50
5023;DHT22;2530;47.990;7.866;2023-04-06T07:23:41;4.60;41.60
5023;DHT22;2530;47.990;7.866;2023-04-06T07:26:07;4.60;38.40
5023;DHT22;2530;47.990;7.866;2023-04-06T07:28:32;4.70;36.70
5023;DHT22;2530;47.990;7.866;2023-04-06T07:30:58;4.80;36.00
5023;DHT22;2530;47.990;7.866;2023-04-06T07:33:23;5.00;34.80
5023;DHT22;2530;47.990;7.866;2023-04-06T07:35:50;5.00;33.80
5023;DHT22;2530;47.990;7.866;2023-04-06T07:38:16;5.20;33.80
5023;DHT22;2530;47.990;7.866;2023-04-06T07:40:42;5.40;31.00
5023;DHT22;2530;47.990;7.866;2023-04-06T07:43:07;5.50;29.80
5023;DHT22;2530;47.990;7.866;2023-04-06T07:45:33;5.50;31.00
5023;DHT22;2530;47.990;7.866;2023-04-06T07:47:58;5.70;31.20
5023;DHT22;2530;47.990;7.866;2023-04-06T07:50:24;5.90;28.90
5023;DHT22;2530;47.990;7.866;2023-04-06T07:52:49;6.00;28.00
5023;DHT22;2530;47.990;7.866;2023-04-06T07:55:15;6.10;29.00
5023;DHT22;2530;47.990;7.866;2023-04-06T07:57:40;6.30;25.70
5023;DHT22;2530;47.990;7.866;2023-04-06T08:00:06;6.40;25.20
5023;DHT22;2530;47.990;7.866;2023-04-06T08:02:34;6.50;22.60
5023;DHT22;2530;47.990;7.866;2023-04-06T08:05:00;6.70;21.60
5023;DHT22;2530;47.990;7.866;2023-04-06T08:07:25;6.80;21.80
5023;DHT22;2530;47.990;7.866;2023-04-06T08:09:51;7.00;20.90
5023;DHT22;2530;47.990;7.866;2023-04-06T08:12:17;7.10;19.50
5023;DHT22;2530;47.990;7.866;2023-04-06T08:14:43;7.30;20.60
5023;DHT22;2530;47.990;7.866;2023-04-06T08:17:08;7.40;18.80
5023;DHT22;2530;47.990;7.866;2023-04-06T08:19:34;7.50;16.80
5023;DHT22;2530;47.990;7.866;2023-04-06T08:21:59;7.60;14.30
5023;DHT22;2530;47.990;7.866;2023-04-06T08:24:25;7.80;12.60
5023;DHT22;2530;47.990;7.866;2023-04-06T08:26:51;8.00;9.80
5023;DHT22;2530;47.990;7.866;2023-04-06T08:29:17;8.10;8.70
5023;DHT22;2530;47.990;7.866;2023-04-06T08:31:43;8.30;7.00
5023;DHT22;2530;47.990;7.866;2023-04-06T08:34:08;8.40;6.20
5023;DHT22;2530;47.990;7.866;2023-04-06T08:36:34;8.40;5.60
5023;DHT22;2530;47.990;7.866;2023-04-06T08:39:00;8.70;4.30
5023;DHT22;2530;47.990;7.866;2023-04-06T08:41:25;8.80;4.50
5023;DHT22;2530;47.990;7.866;2023-04-06T08:43:57;8.80;3.60
5023;DHT22;2530;47.990;7.866;2023-04-06T08:46:24;8.90;3.90
5023;DHT22;2530;47.990;7.866;2023-04-06T08:48:57;8.80;2.80
5023;DHT22;2530;47.990;7.866;2023-04-06T08:51:24;8.90;2.70
5023;DHT22;2530;47.990;7.866;2023-04-06T08:53:56;9.00;2.40
5023;DHT22;2530;47.990;7.866;2023-04-06T08:56:26;9.10;2.40
5023;DHT22;2530;47.990;7.866;2023-04-06T08:58:53;8.90;1.80
5023;DHT22;2530;47.990;7.866;2023-04-06T09:01:27;9.00;2.50
5023;DHT22;2530;47.990;7.866;2023-04-06T09:03:59;9.20;2.20
5023;DHT22;2530;47.990;7.866;2023-04-06T09:06:30;9.20;1.80
5023;DHT22;2530;47.990;7.866;2023-04-06T09:08:56;9.30;1.70
5023;DHT22;2530;47.990;7.866;2023-04-06T09:11:23;9.20;1.30
5023;DHT22;2530;47.990;7.866;2023-04-06T09:13:50;9.40;1.00
5023;DHT22;2530;47.990;7.866;2023-04-06T09:16:16;9.50;1.00
5023;DHT22;2530;47.990;7.866;2023-04-06T09:18:42;9.60;1.30
5023;DHT22;2530;47.990;7.866;2023-04-06T09:21:08;9.70;1.00
5023;DHT22;2530;47.990;7.866;2023-04-06T09:23:34;10.00;1.00
5023;DHT22;2530;47.990;7.866;2023-04-06T09:26:11;10.00;1.00
5023;DHT22;2530;47.990;7.866;2023-04-06T09:28:54;10.10;1.00
5023;DHT22;2530;47.990;7.866;2023-04-06T09:31:28;10.20;1.00
5023;DHT22;2530;47.990;7.866;2023-04-06T09:33:55;10.30;1.00
5023;DHT22;2530;47.990;7.866;2023-04-06T09:36:33;10.40;1.00
5023;DHT22;2530;47.990;7.866;2023-04-06T09:39:03;10.20;1.00
5023;DHT22;2530;47.990;7.866;2023-04-06T09:41:35;10.30;1.00
5023;DHT22;2530;47.990;7.866;2023-04-06T09:44:09;10.50;1.00
5023;DHT22;2530;47.990;7.866;2023-04-06T09:46:43;10.90;1.00
5023;DHT22;2530;47.990;7.866;2023-04-06T09:49:09;10.70;1.00
5023;DHT22;2530;47.990;7.866;2023-04-06T09:54:02;10.90;1.00
5023;DHT22;2530;47.990;7.866;2023-04-06T09:56:58;10.90;1.00
5023;DHT22;2530;47.990;7.866;2023-04-06T10:00:05;11.00;1.00
5023;DHT22;2530;47.990;7.866;2023-04-06T10:05:43;11.10;1.00
5023;DHT22;2530;47.990;7.866;2023-04-06T10:08:12;11.10;1.00
5023;DHT22;2530;47.990;7.866;2023-04-06T10:10:38;10.80;1.00
5023;DHT22;2530;47.990;7.866;2023-04-06T10:13:04;11.10;1.00
5023;DHT22;2530;47.990;7.866;2023-04-06T10:15:30;11.00;1.00
5023;DHT22;2530;47.990;7.866;2023-04-06T10:17:58;11.10;1.00
5023;DHT22;2530;47.990;7.866;2023-04-06T10:20:29;11.30;1.00
5023;DHT22;2530;47.990;7.866;2023-04-06T10:23:05;11.30;1.00
5023;DHT22;2530;47.990;7.866;2023-04-06T10:25:34;11.30;1.00
5023;DHT22;2530;47.990;7.866;2023-04-06T10:30:26;11.40;1.00
5023;DHT22;2530;47.990;7.866;2023-04-06T10:32:53;11.20;1.00
5023;DHT22;2530;47.990;7.866;2023-04-06T10:35:18;11.70;1.00
5023;DHT22;2530;47.990;7.866;2023-04-06T10:37:50;11.60;1.00
5023;DHT22;2530;47.990;7.866;2023-04-06T10:40:24;11.50;1.00
5023;DHT22;2530;47.990;7.866;2023-04-06T10:42:51;11.80;1.00
5023;DHT22;2530;47.990;7.866;2023-04-06T10:45:21;12.00;1.00
5023;DHT22;2530;47.990;7.866;2023-04-06T10:47:47;11.80;1.00
5023;DHT22;2530;47.990;7.866;2023-04-06T10:50:16;11.70;1.00
5023;DHT22;2530;47.990;7.866;2023-04-06T10:52:44;11.90;1.00
5023;DHT22;2530;47.990;7.866;2023-04-06T10:55:12;12.00;1.00
5023;DHT22;2530;47.990;7.866;2023-04-06T10:57:38;11.90;1.00
5023;DHT22;2530;47.990;7.866;2023-04-06T11:00:05;11.80;1.00
5023;DHT22;2530;47.990;7.866;2023-04-06T11:02:31;12.00;1.00
5023;DHT22;2530;47.990;7.866;2023-04-06T11:04:58;11.90;1.00
5023;DHT22;2530;47.990;7.866;2023-04-06T11:07:25;12.20;1.00
5023;DHT22;2530;47.990;7.866;2023-04-06T11:09:52;12.30;1.00
5023;DHT22;2530;47.990;7.866;2023-04-06T11:12:25;12.30;1.00
5023;DHT22;2530;47.990;7.866;2023-04-06T11:14:59;12.60;1.00
5023;DHT22;2530;47.990;7.866;2023-04-06T11:17:30;12.60;1.00
5023;DHT22;2530;47.990;7.866;2023-04-06T11:19:56;12.90;1.00
5023;DHT22;2530;47.990;7.866;2023-04-06T11:22:22;12.90;1.00
5023;DHT22;2530;47.990;7.866;2023-04-06T11:24:48;13.20;1.00
5023;DHT22;2530;47.990;7.866;2023-04-06T11:27:14;13.20;1.00
5023;DHT22;2530;47.990;7.866;2023-04-06T11:29:41;13.10;1.00
5023;DHT22;2530;47.990;7.866;2023-04-06T11:32:07;13.40;1.00
5023;DHT22;2530;47.990;7.866;2023-04-06T11:34:36;13.40;1.00
5023;DHT22;2530;47.990;7.866;2023-04-06T11:37:03;13.90;1.00
5023;DHT22;2530;47.990;7.866;2023-04-06T11:39:50;14.40;1.00
5023;DHT22;2530;47.990;7.866;2023-04-06T11:42:42;14.70;1.00
5023;DHT22;2530;47.990;7.866;2023-04-06T11:45:16;14.40;1.00
5023;DHT22;2530;47.990;7.866;2023-04-06T11:47:42;14.20;1.00
5023;DHT22;2530;47.990;7.866;2023-04-06T11:50:16;14.80;1.00
5023;DHT22;2530;47.990;7.866;2023-04-06T11:52:47;14.40;1.00
5023;DHT22;2530;47.990;7.866;2023-04-06T11:55:23;14.50;1.00
5023;DHT22;2530;47.990;7.866;2023-04-06T11:57:48;13.90;1.00
5023;DHT22;2530;47.990;7.866;2023-04-06T12:00:15;14.70;1.00
5023;DHT22;2530;47.990;7.866;2023-04-06T12:02:45;15.00;1.00
5023;DHT22;2530;47.990;7.866;2023-04-06T12:05:12;15.20;1.00
5023;DHT22;2530;47.990;7.866;2023-04-06T12:07:37;15.70;1.00
5023;DHT22;2530;47.990;7.866;2023-04-06T12:10:03;15.90;1.00
5023;DHT22;2530;47.990;7.866;2023-04-06T12:12:29;14.90;1.00
5023;DHT22;2530;47.990;7.866;2023-04-06T12:14:56;15.20;1.00
5023;DHT22;2530;47.990;7.866;2023-04-06T12:17:21;15.80;1.00
5023;DHT22;2530;47.990;7.866;2023-04-06T12:19:47;15.40;1.00
5023;DHT22;2530;47.990;7.866;2023-04-06T12:22:12;15.40;1.00
5023;DHT22;2530;47.990;7.866;2023-04-06T12:24:38;15.80;1.00
5023;DHT22;2530;47.990;7.866;2023-04-06T12:27:04;15.60;1.00
5023;DHT22;2530;47.990;7.866;2023-04-06T12:29:29;15.90;1.00
5023;DHT22;2530;47.990;7.866;2023-04-06T12:31:55;16.10;1.00
5023;DHT22;2530;47.990;7.866;2023-04-06T12:34:21;15.10;1.00
5023;DHT22;2530;47.990;7.866;2023-04-06T12:36:46;15.20;1.00
5023;DHT22;2530;47.990;7.866;2023-04-06T12:39:12;15.00;1.00
5023;DHT22;2530;47.990;7.866;2023-04-06T12:41:37;14.20;1.00
5023;DHT22;2530;47.990;7.866;2023-04-06T12:44:06;14.80;1.00
5023;DHT22;2530;47.990;7.866;2023-04-06T12:46:32;15.00;1.00
5023;DHT22;2530;47.990;7.866;2023-04-06T12:48:57;14.80;1.00
5023;DHT22;2530;47.990;7.866;2023-04-06T12:51:27;15.10;1.00
5023;DHT22;2530;47.990;7.866;2023-04-06T12:53:53;14.70;1.00
5023;DHT22;2530;47.990;7.866;2023-04-06T12:56:19;13.90;1.00
5023;DHT22;2530;47.990;7.866;2023-04-06T12:58:46;13.80;1.00
5023;DHT22;2530;47.990;7.866;2023-04-06T13:01:12;13.80;1.00
5023;DHT22;2530;47.990;7.866;2023-04-06T13:03:38;13.90;1.00
5023;DHT22;2530;47.990;7.866;2023-04-06T13:06:04;14.30;1.00
5023;DHT22;2530;47.990;7.866;2023-04-06T13:08:29;14.30;1.00
5023;DHT22;2530;47.990;7.866;2023-04-06T13:10:55;14.40;1.00
5023;DHT22;2530;47.990;7.866;2023-04-06T13:13:25;14.10;1.00
5023;DHT22;2530;47.990;7.866;2023-04-06T13:15:59;14.50;1.00
5023;DHT22;2530;47.990;7.866;2023-04-06T13:18:24;14.00;1.00
5023;DHT22;2530;47.990;7.866;2023-04-06T13:20:50;14.20;1.00
5023;DHT22;2530;47.990;7.866;2023-04-06T13:23:15;14.60;1.00
5023;DHT22;2530;47.990;7.866;2023-04-06T13:25:41;14.60;1.00
5023;DHT22;2530;47.990;7.866;2023-04-06T13:28:08;14.50;1.00
5023;DHT22;2530;47.990;7.866;2023-04-06T13:30:33;14.40;1.00
5023;DHT22;2530;47.990;7.866;2023-04-06T13:32:59;14.50;1.00
5023;DHT22;2530;47.990;7.866;2023-04-06T13:35:25;14.30;1.00
5023;DHT22;2530;47.990;7.866;2023-04-06T13:37:50;14.10;1.00
5023;DHT22;2530;47.990;7.866;2023-04-06T13:40:17;14.70;1.00
5023;DHT22;2530;47.990;7.866;2023-04-06T13:42:43;15.30;1.00
5023;DHT22;2530;47.990;7.866;2023-04-06T13:45:10;15.30;1.00
5023;DHT22;2530;47.990;7.866;2023-04-06T13:47:36;14.70;1.00
5023;DHT22;2530;47.990;7.866;2023-04-06T13:50:02;14.90;1.00
5023;DHT22;2530;47.990;7.866;2023-04-06T13:52:29;14.60;1.00
5023;DHT22;2530;47.990;7.866;2023-04-06T13:54:54;15.00;1.00
5023;DHT22;2530;47.990;7.866;2023-04-06T13:57:22;14.70;1.00
5023;DHT22;2530;47.990;7.866;2023-04-06T13:59:48;14.70;1.00
5023;DHT22;2530;47.990;7.866;2023-04-06T14:02:15;14.70;1.00
5023;DHT22;2530;47.990;7.866;2023-04-06T14:04:41;14.80;1.00
5023;DHT22;2530;47.990;7.866;2023-04-06T14:07:07;15.00;1.00
5023;DHT22;2530;47.990;7.866;2023-04-06T14:09:33;14.50;1.00
5023;DHT22;2530;47.990;7.866;2023-04-06T14:11:58;14.10;1.00
5023;DHT22;2530;47.990;7.866;2023-04-06T14:14:24;14.10;1.00
5023;DHT22;2530;47.990;7.866;2023-04-06T14:16:51;14.20;1.00
5023;DHT22;2530;47.990;7.866;2023-04-06T14:19:17;13.80;1.00
5023;DHT22;2530;47.990;7.866;2023-04-06T14:21:46;13.70;1.00
5023;DHT22;2530;47.990;7.866;2023-04-06T14:24:12;13.50;1.00
5023;DHT22;2530;47.990;7.866;2023-04-06T14:26:39;13.70;1.00
5023;DHT22;2530;47.990;7.866;2023-04-06T14:29:06;13.70;1.00
5023;DHT22;2530;47.990;7.866;2023-04-06T14:31:32;13.60;1.00
5023;DHT22;2530;47.990;7.866;2023-04-06T14:33:58;13.70;1.00
5023;DHT22;2530;47.990;7.866;2023-04-06T14:36:23;13.90;1.00
5023;DHT22;2530;47.990;7.866;2023-04-06T14:38:51;13.90;1.00
5023;DHT22;2530;47.990;7.866;2023-04-06T14:41:18;13.70;1.00
5023;DHT22;2530;47.990;7.866;2023-04-06T14:43:46;13.70;1.00
5023;DHT22;2530;47.990;7.866;2023-04-06T14:46:12;13.80;1.00
5023;DHT22;2530;47.990;7.866;2023-04-06T14:48:38;13.70;1.00
5023;DHT22;2530;47.990;7.866;2023-04-06T14:51:04;13.60;1.00
5023;DHT22;2530;47.990;7.866;2023-04-06T14:53:29;13.80;1.00
5023;DHT22;2530;47.990;7.866;2023-04-06T14:55:55;13.70;1.00
5023;DHT22;2530;47.990;7.866;2023-04-06T14:58:22;13.60;1.00
5023;DHT22;2530;47.990;7.866;2023-04-06T15:00:49;13.70;1.00
5023;DHT22;2530;47.990;7.866;2023-04-06T15:03:15;13.60;1.00
5023;DHT22;2530;47.990;7.866;2023-04-06T15:05:41;13.60;1.00
5023;DHT22;2530;47.990;7.866;2023-04-06T15:08:07;13.60;1.00
5023;DHT22;2530;47.990;7.866;2023-04-06T15:10:35;13.50;1.00
5023;DHT22;2530;47.990;7.866;2023-04-06T15:13:01;13.60;1.00
5023;DHT22;2530;47.990;7.866;2023-04-06T15:15:26;13.70;1.00
5023;DHT22;2530;47.990;7.866;2023-04-06T15:17:52;13.60;1.00
5023;DHT22;2530;47.990;7.866;2023-04-06T15:20:18;13.70;1.00
5023;DHT22;2530;47.990;7.866;2023-04-06T15:22:44;13.60;1.00
5023;DHT22;2530;47.990;7.866;2023-04-06T15:25:10;13.50;1.00
5023;DHT22;2530;47.990;7.866;2023-04-06T15:27:35;13.60;1.00
5023;DHT22;2530;47.990;7.866;2023-04-06T15:30:01;13.50;1.00
5023;DHT22;2530;47.990;7.866;2023-04-06T15:32:26;13.60;1.00
5023;DHT22;2530;47.990;7.866;2023-04-06T15:34:53;13.20;1.00
5023;DHT22;2530;47.990;7.866;2023-04-06T15:37:21;13.10;1.00
5023;DHT22;2530;47.990;7.866;2023-04-06T15:39:46;13.00;1.00
5023;DHT22;2530;47.990;7.866;2023-04-06T15:42:12;12.90;1.00
5023;DHT22;2530;47.990;7.866;2023-04-06T15:44:37;12.70;1.00
5023;DHT22;2530;47.990;7.866;2023-04-06T15:47:03;12.60;1.00
5023;DHT22;2530;47.990;7.866;2023-04-06T15:49:28;12.50;1.00
5023;DHT22;2530;47.990;7.866;2023-04-06T15:51:54;12.50;1.00
5023;DHT22;2530;47.990;7.866;2023-04-06T15:54:19;12.40;1.00
5023;DHT22;2530;47.990;7.866;2023-04-06T15:56:47;12.30;1.00
5023;DHT22;2530;47.990;7.866;2023-04-06T15:59:12;12.40;1.00
5023;DHT22;2530;47.990;7.866;2023-04-06T16:01:38;12.40;1.00
5023;DHT22;2530;47.990;7.866;2023-04-06T16:04:06;12.40;1.00
5023;DHT22;2530;47.990;7.866;2023-04-06T16:06:32;12.40;1.00
5023;DHT22;2530;47.990;7.866;2023-04-06T16:08:58;12.50;1.00
5023;DHT22;2530;47.990;7.866;2023-04-06T16:11:23;12.40;1.00
5023;DHT22;2530;47.990;7.866;2023-04-06T16:13:50;12.40;1.00
5023;DHT22;2530;47.990;7.866;2023-04-06T16:16:15;12.30;1.00
5023;DHT22;2530;47.990;7.866;2023-04-06T16:18:41;12.20;1.00
5023;DHT22;2530;47.990;7.866;2023-04-06T16:21:07;12.40;1.00
5023;DHT22;2530;47.990;7.866;2023-04-06T16:23:33;12.40;1.00
5023;DHT22;2530;47.990;7.866;2023-04-06T16:25:58;12.40;1.00
5023;DHT22;2530;47.990;7.866;2023-04-06T16:28:25;12.50;1.00